Time;durP1;ratioP1;P1;durP2;ratioP2;P2;SDS_P1;SDS_P2;PMS_P1;PMS_P2;Temp;Humidity;BMP_temperature;BMP_pressure;BME280_temperature;BME280_humidity;BME280_pressure;Samples;Min_cycle;Max_cycle;Signal;HPM_P1;HPM_P2
2022/08/16 00:00:53;;;;;;;10.03;9.00;;;;;;;23.27;61.09;100336.88;4954275;28;97712;-48
2022/08/16 00:03:19;;;;;;;9.20;8.40;;;;;;;23.26;61.07;100329.78;4953345;28;96947;-48
2022/08/16 00:05:44;;;;;;;8.27;7.57;;;;;;;23.25;61.15;100335.97;4954364;28;96915;-48
2022/08/16 00:08:10;;;;;;;9.43;8.53;;;;;;;23.24;60.98;100331.69;4955015;28;97229;-48
2022/08/16 00:10:36;;;;;;;8.30;7.60;;;;;;;23.24;61.03;100337.31;4951352;28;97987;-48
2022/08/16 00:13:06;;;;;;;9.13;8.40;;;;;;;23.24;61.01;100337.31;4955568;28;97092;-48
2022/08/16 00:15:38;;;;;;;9.90;8.10;;;;;;;23.21;61.18;100330.06;4953271;28;96981;-48
2022/08/16 00:18:04;;;;;;;8.00;7.37;;;;;;;23.19;61.01;100321.50;4953758;28;97754;-48
2022/08/16 00:20:31;;;;;;;9.53;8.07;;;;;;;23.19;61.11;100324.31;4953077;28;97211;-48
2022/08/16 00:22:56;;;;;;;7.93;7.23;;;;;;;23.17;61.14;100327.72;4952093;28;96949;-49
2022/08/16 00:25:23;;;;;;;9.03;8.23;;;;;;;23.14;61.22;100326.06;4954051;28;96961;-48
2022/08/16 00:27:48;;;;;;;9.47;8.57;;;;;;;23.13;61.31;100332.28;4952291;28;97441;-48
2022/08/16 00:30:15;;;;;;;10.00;9.17;;;;;;;23.15;61.16;100329.63;4953171;28;96992;-47
2022/08/16 00:32:43;;;;;;;9.03;8.23;;;;;;;23.15;61.07;100332.41;4950688;28;97118;-48
2022/08/16 00:35:13;;;;;;;9.33;8.53;;;;;;;23.13;61.08;100330.19;4955156;28;97606;-48
2022/08/16 00:37:38;;;;;;;9.43;8.63;;;;;;;23.14;61.16;100328.88;4954508;28;98564;-48
2022/08/16 00:40:06;;;;;;;8.63;7.73;;;;;;;23.13;61.28;100339.34;4953502;28;97982;-49
2022/08/16 00:42:32;;;;;;;8.17;7.37;;;;;;;23.11;61.37;100327.22;4950634;28;97076;-48
2022/08/16 00:45:12;;;;;;;8.40;7.70;;;;;;;23.09;61.59;100333.44;4953930;28;97165;-48
2022/08/16 00:47:45;;;;;;;8.90;8.17;;;;;;;23.07;61.39;100329.75;4955618;28;100575;-48
2022/08/16 00:50:11;;;;;;;9.37;8.50;;;;;;;23.04;61.23;100328.13;4955175;28;101357;-48
2022/08/16 00:52:38;;;;;;;8.90;8.10;;;;;;;23.01;61.36;100326.47;4953603;28;97230;-48
2022/08/16 00:55:04;;;;;;;9.20;8.40;;;;;;;22.98;61.43;100325.59;4954016;28;96892;-48
2022/08/16 00:57:30;;;;;;;8.60;7.90;;;;;;;22.97;61.18;100331.78;4956060;28;97329;-48
2022/08/16 00:59:55;;;;;;;9.07;8.27;;;;;;;22.96;61.33;100327.50;4955571;28;97563;-49
2022/08/16 01:02:21;;;;;;;9.83;8.83;;;;;;;22.94;61.29;100325.28;4960071;28;97343;-48
2022/08/16 01:04:46;;;;;;;9.17;8.37;;;;;;;22.94;61.30;100322.47;4955083;28;97611;-48
2022/08/16 01:07:12;;;;;;;9.00;8.20;;;;;;;22.91;61.22;100323.63;4952180;28;98559;-48
2022/08/16 01:09:38;;;;;;;11.17;8.30;;;;;;;22.88;61.53;100329.69;4955233;28;96862;-48
2022/08/16 01:12:06;;;;;;;8.93;8.13;;;;;;;22.87;61.50;100328.94;4953881;28;97243;-49
2022/08/16 01:14:38;;;;;;;9.20;8.50;;;;;;;22.88;61.58;100324.09;4954735;28;96846;-48
2022/08/16 01:17:03;;;;;;;8.73;7.93;;;;;;;22.88;61.53;100335.31;4950301;28;100574;-48
2022/08/16 01:19:31;;;;;;;8.30;7.60;;;;;;;22.89;61.47;100345.22;4952526;28;97219;-48
2022/08/16 01:22:01;;;;;;;8.83;8.03;;;;;;;22.89;61.40;100334.00;4951290;28;96985;-47
2022/08/16 01:24:35;;;;;;;9.07;8.17;;;;;;;22.88;61.59;100343.72;4953435;28;97312;-49
2022/08/16 01:27:08;;;;;;;8.50;7.70;;;;;;;22.87;61.46;100345.78;4954853;28;96598;-49
2022/08/16 01:29:59;;;;;;;8.33;7.43;;;;;;;22.81;61.70;100342.53;4957192;28;96869;-49
2022/08/16 01:32:29;;;;;;;7.30;6.70;;;;;;;22.81;61.48;100350.94;4955591;28;97216;-49
2022/08/16 01:34:55;;;;;;;8.53;7.83;;;;;;;22.77;61.52;100342.22;4957620;28;96927;-49
2022/08/16 01:37:20;;;;;;;7.87;7.23;;;;;;;22.75;61.46;100350.47;4957708;28;97274;-49
2022/08/16 01:39:46;;;;;;;8.17;7.50;;;;;;;22.74;61.47;100360.22;4956141;28;97053;-48
2022/08/16 01:42:11;;;;;;;7.97;7.27;;;;;;;22.74;61.59;100356.66;4957706;28;96806;-49
2022/08/16 01:44:38;;;;;;;8.37;7.67;;;;;;;22.74;61.50;100359.47;4955232;28;97160;-47
2022/08/16 01:47:05;;;;;;;9.13;7.90;;;;;;;22.75;61.59;100366.56;4956537;28;97598;-47
2022/08/16 01:49:33;;;;;;;7.93;7.33;;;;;;;22.76;61.52;100362.44;4957770;28;96807;-49
2022/08/16 01:52:03;;;;;;;8.40;7.70;;;;;;;22.76;61.63;100376.47;4955108;28;97258;-47
2022/08/16 01:54:29;;;;;;;7.67;7.03;;;;;;;22.75;61.73;100377.78;4955525;28;97729;-49
2022/08/16 01:56:54;;;;;;;8.80;7.90;;;;;;;22.77;61.75;100375.88;4951955;28;97284;-49
2022/08/16 01:59:20;;;;;;;10.03;8.87;;;;;;;22.77;61.59;100375.13;4954799;28;96990;-49
2022/08/16 02:01:49;;;;;;;7.43;6.83;;;;;;;22.72;61.63;100379.69;4956942;28;96836;-51
2022/08/16 02:04:15;;;;;;;7.97;7.27;;;;;;;22.70;61.75;100384.41;4956709;28;97115;-49
2022/08/16 02:06:41;;;;;;;9.17;7.97;;;;;;;22.68;61.80;100375.81;4958562;28;98498;-49
2022/08/16 02:09:08;;;;;;;8.67;7.93;;;;;;;22.66;62.06;100375.66;4953822;28;96980;-49
2022/08/16 02:11:35;;;;;;;7.83;7.03;;;;;;;22.66;62.00;100379.22;4955953;28;97119;-49
2022/08/16 02:14:00;;;;;;;9.97;7.93;;;;;;;22.67;61.98;100374.38;4954404;28;96885;-49
2022/08/16 02:16:25;;;;;;;8.20;7.50;;;;;;;22.68;62.17;100384.25;4957596;28;96925;-47
2022/08/16 02:18:51;;;;;;;8.40;7.60;;;;;;;22.68;62.09;100379.38;4954892;28;97072;-49
2022/08/16 02:21:17;;;;;;;11.60;8.67;;;;;;;22.68;61.96;100376.56;4958455;28;97224;-49
2022/08/16 02:23:44;;;;;;;8.87;8.17;;;;;;;22.68;62.08;100384.25;4956403;28;96929;-49
2022/08/16 02:26:09;;;;;;;8.50;7.80;;;;;;;22.66;62.12;100384.09;4956088;28;97103;-49
2022/08/16 02:28:36;;;;;;;9.10;8.37;;;;;;;22.64;62.15;100386.75;4955859;28;96853;-49
2022/08/16 02:31:06;;;;;;;8.30;7.50;;;;;;;22.67;62.08;100394.00;4957874;28;97103;-48
2022/08/16 02:33:32;;;;;;;8.20;7.50;;;;;;;22.68;62.24;100392.66;4954680;28;104332;-49
2022/08/16 02:35:58;;;;;;;9.20;8.30;;;;;;;22.69;62.16;100396.94;4951600;28;98069;-49
2022/08/16 02:38:23;;;;;;;8.83;8.03;;;;;;;22.68;62.18;100395.47;4955937;28;97069;-48
2022/08/16 02:40:49;;;;;;;8.27;7.47;;;;;;;22.68;62.17;100395.47;4949379;28;96800;-49
2022/08/16 02:43:14;;;;;;;8.10;7.40;;;;;;;22.68;62.07;100401.06;4955034;28;97100;-49
2022/08/16 02:45:40;;;;;;;7.40;6.80;;;;;;;22.66;62.24;100393.25;4950934;28;97513;-49
2022/08/16 02:48:05;;;;;;;8.77;7.97;;;;;;;22.69;62.19;100396.94;4954270;28;97131;-49
2022/08/16 02:50:31;;;;;;;8.43;7.63;;;;;;;22.69;62.11;100392.09;4954255;28;97393;-49
2022/08/16 02:52:56;;;;;;;8.10;7.30;;;;;;;22.70;62.18;100398.41;4960100;28;97481;-49
2022/08/16 02:55:22;;;;;;;7.60;7.00;;;;;;;22.68;62.23;100389.84;4952268;28;97427;-48
2022/08/16 02:57:47;;;;;;;8.50;7.70;;;;;;;22.70;62.25;100398.41;4955410;28;97416;-49
2022/08/16 03:00:15;;;;;;;10.60;7.90;;;;;;;22.69;62.03;100397.69;4953366;28;97506;-49
2022/08/16 03:02:43;;;;;;;8.67;7.70;;;;;;;22.69;62.09;100394.16;4951592;28;97034;-48
2022/08/16 03:05:12;;;;;;;9.03;8.23;;;;;;;22.69;62.15;100392.09;4951505;28;97475;-48
2022/08/16 03:07:38;;;;;;;8.67;7.97;;;;;;;22.68;62.18;100398.25;4955676;28;101701;-49
2022/08/16 03:10:07;;;;;;;8.40;7.67;;;;;;;22.69;62.08;100391.34;4954148;28;97066;-46
2022/08/16 03:12:33;;;;;;;8.30;7.60;;;;;;;22.68;62.21;100393.41;4958461;28;97210;-49
2022/08/16 03:15:08;;;;;;;8.43;6.87;;;;;;;22.68;62.31;100389.84;4952976;28;96744;-49
2022/08/16 03:17:34;;;;;;;7.53;6.87;;;;;;;22.66;62.19;100392.50;4950559;28;98137;-49
2022/08/16 03:20:00;;;;;;;7.80;7.07;;;;;;;22.63;62.18;100388.78;4955382;28;96940;-47
2022/08/16 03:22:25;;;;;;;8.43;7.50;;;;;;;22.62;62.22;100390.13;4954914;28;97316;-49
2022/08/16 03:24:51;;;;;;;7.90;7.20;;;;;;;22.61;62.19;100379.47;4960369;28;104114;-48
2022/08/16 03:27:16;;;;;;;8.63;7.87;;;;;;;22.59;62.20;100379.28;4956210;28;96927;-48
2022/08/16 03:29:41;;;;;;;7.63;7.00;;;;;;;22.57;62.31;100379.13;4954885;28;97728;-48
2022/08/16 03:32:07;;;;;;;7.73;6.87;;;;;;;22.57;62.30;100379.13;4954233;28;97406;-49
2022/08/16 03:34:32;;;;;;;8.47;7.67;;;;;;;22.58;62.17;100380.63;4959583;28;96981;-48
2022/08/16 03:36:59;;;;;;;7.80;7.10;;;;;;;22.55;62.18;100390.94;4952743;28;96851;-49
2022/08/16 03:39:25;;;;;;;7.37;6.77;;;;;;;22.58;62.38;100380.63;4952784;28;97280;-49
2022/08/16 03:41:51;;;;;;;8.70;7.60;;;;;;;22.56;62.23;100384.03;4953800;28;97349;-49
2022/08/16 03:44:17;;;;;;;11.47;6.93;;;;;;;22.56;62.39;100378.41;4957068;28;96851;-49
2022/08/16 03:46:42;;;;;;;8.13;7.50;;;;;;;22.56;62.24;100380.47;4952502;28;96819;-49
2022/08/16 03:49:10;;;;;;;7.90;7.20;;;;;;;22.55;62.43;100393.00;4958350;28;96938;-48
2022/08/16 03:51:37;;;;;;;8.47;7.80;;;;;;;22.54;62.25;100391.53;4951269;28;97559;-48
2022/08/16 03:54:03;;;;;;;8.97;8.17;;;;;;;22.51;62.46;100393.44;4955101;28;97364;-49
2022/08/16 03:56:28;;;;;;;9.47;8.70;;;;;;;;;;4956330;28;98651;-49
2022/08/16 03:58:55;;;;;;;8.47;7.53;;;;;;;22.51;62.38;100392.69;4955596;28;96637;-48
2022/08/16 04:01:21;;;;;;;9.00;8.10;;;;;;;22.50;62.35;100388.41;4953852;28;97105;-48
2022/08/16 04:03:47;;;;;;;7.57;6.90;;;;;;;22.48;62.30;100391.78;4950385;28;97418;-48
2022/08/16 04:06:12;;;;;;;10.60;7.87;;;;;;;22.47;62.41;100392.38;4956225;28;100711;-48
2022/08/16 04:08:37;;;;;;;7.77;7.07;;;;;;;22.46;62.46;100402.84;4952147;28;97583;-48
2022/08/16 04:11:03;;;;;;;10.50;7.87;;;;;;;22.48;62.51;100405.06;4957564;28;97531;-48
2022/08/16 04:13:29;;;;;;;8.40;7.60;;;;;;;22.46;62.53;100397.25;4954167;28;97131;-49
2022/08/16 04:15:58;;;;;;;7.30;6.70;;;;;;;22.46;62.46;100397.25;4955456;28;96726;-49
2022/08/16 04:18:24;;;;;;;8.33;7.63;;;;;;;22.47;62.40;100400.78;4955340;28;97613;-47
2022/08/16 04:20:49;;;;;;;8.37;7.67;;;;;;;22.46;62.47;100408.47;4954065;28;96989;-48
2022/08/16 04:23:15;;;;;;;7.33;6.73;;;;;;;22.48;62.54;100411.41;4955364;28;98575;-49
2022/08/16 04:25:40;;;;;;;7.33;6.70;;;;;;;22.51;62.70;100415.13;4954764;28;97134;-48
2022/08/16 04:28:06;;;;;;;6.60;6.10;;;;;;;22.53;62.59;100423.69;4952473;28;97313;-48
2022/08/16 04:30:32;;;;;;;7.50;6.90;;;;;;;22.56;62.69;100420.47;4949726;28;96859;-48
2022/08/16 04:32:59;;;;;;;8.00;7.20;;;;;;;22.58;62.53;100419.91;4953679;28;97548;-55
2022/08/16 04:35:25;;;;;;;8.60;7.87;;;;;;;22.58;62.76;100426.25;4953794;28;98418;-48
2022/08/16 04:37:51;;;;;;;8.47;7.77;;;;;;;22.61;62.75;100418.75;4953453;28;96945;-48
2022/08/16 04:40:17;;;;;;;8.47;7.50;;;;;;;22.62;62.73;100420.97;4950927;28;97221;-48
2022/08/16 04:42:44;;;;;;;8.23;7.40;;;;;;;22.64;62.73;100423.94;4952308;28;97541;-48
2022/08/16 04:45:12;;;;;;;7.73;6.90;;;;;;;22.67;62.84;100422.03;4954114;28;97443;-48
2022/08/16 04:47:40;;;;;;;8.63;7.93;;;;;;;22.70;62.70;100429.28;4956543;28;97392;-48
2022/08/16 04:50:09;;;;;;;7.87;7.27;;;;;;;22.75;62.93;100431.06;4951230;28;96874;-47
2022/08/16 04:52:35;;;;;;;8.23;7.60;;;;;;;22.79;62.78;100429.34;4950846;28;97615;-48
2022/08/16 04:55:14;;;;;;;8.47;7.70;;;;;;;22.83;63.08;100428.91;4950315;28;98406;-48
2022/08/16 04:57:40;;;;;;;8.40;7.70;;;;;;;22.84;62.98;100436.00;4952286;28;96793;-48
2022/08/16 05:00:10;;;;;;;8.23;7.50;;;;;;;22.90;62.91;100434.41;4953382;28;96799;-48
2022/08/16 05:02:36;;;;;;;7.77;7.17;;;;;;;22.91;62.90;100435.88;4952369;28;98281;-48
2022/08/16 05:05:02;;;;;;;11.10;8.60;;;;;;;22.95;62.85;100438.25;4956565;28;97343;-49
2022/08/16 05:07:27;;;;;;;10.33;7.40;;;;;;;22.95;62.98;100441.06;4955540;28;97420;-51
2022/08/16 05:09:53;;;;;;;7.70;7.00;;;;;;;22.95;63.13;100444.63;4957722;28;109851;-48
2022/08/16 05:12:19;;;;;;;8.53;7.77;;;;;;;22.98;63.24;100439.88;4955538;28;98705;-48
2022/08/16 05:14:44;;;;;;;9.03;7.63;;;;;;;22.99;63.26;100449.78;4956156;28;97507;-48
2022/08/16 05:17:09;;;;;;;8.77;6.60;;;;;;;22.99;63.37;100453.34;4955016;28;97421;-48
2022/08/16 05:19:35;;;;;;;8.00;7.27;;;;;;;23.03;63.41;100447.28;4957016;28;96900;-48
2022/08/16 05:22:00;;;;;;;8.27;7.57;;;;;;;23.05;63.37;100453.81;4958158;28;97289;-49
2022/08/16 05:24:26;;;;;;;8.07;7.37;;;;;;;23.01;63.32;100461.94;4951536;28;97730;-48
2022/08/16 05:26:51;;;;;;;9.30;7.93;;;;;;;23.00;63.27;100451.25;4956613;28;97042;-49
2022/08/16 05:29:17;;;;;;;8.13;7.40;;;;;;;22.96;63.55;100446.09;4953037;28;96903;-50
2022/08/16 05:31:42;;;;;;;9.60;6.90;;;;;;;22.94;63.63;100448.75;4956090;28;97590;-48
2022/08/16 05:34:07;;;;;;;7.23;6.60;;;;;;;22.95;63.48;100446.69;4955425;28;98226;-48
2022/08/16 05:36:33;;;;;;;7.80;6.63;;;;;;;22.97;63.66;100447.59;4957070;28;97154;-48
2022/08/16 05:38:59;;;;;;;7.73;7.03;;;;;;;23.01;63.64;100449.94;4954516;28;96773;-48
2022/08/16 05:41:24;;;;;;;9.77;6.97;;;;;;;23.02;63.65;100451.44;4956454;28;97283;-48
2022/08/16 05:43:50;;;;;;;8.50;7.80;;;;;;;23.03;63.49;100447.28;4954799;28;97158;-48
2022/08/16 05:46:19;;;;;;;7.67;6.90;;;;;;;23.06;63.50;100446.13;4956386;28;97287;-48
2022/08/16 05:48:45;;;;;;;7.20;6.60;;;;;;;23.09;63.53;100451.31;4950481;28;97121;-48
2022/08/16 05:51:10;;;;;;;7.00;6.40;;;;;;;23.15;63.62;100459.47;4955094;28;101353;-48
2022/08/16 05:53:36;;;;;;;8.17;7.37;;;;;;;23.22;63.52;100457.88;4955576;28;97175;-48
2022/08/16 05:56:02;;;;;;;8.10;7.20;;;;;;;23.27;63.64;100459.66;4957327;28;97290;-48
2022/08/16 05:58:27;;;;;;;6.87;6.33;;;;;;;23.30;63.67;100456.41;4956420;28;96946;-48
2022/08/16 06:00:52;;;;;;;7.47;6.87;;;;;;;23.36;63.57;100470.19;4957544;28;96938;-48
2022/08/16 06:03:18;;;;;;;6.90;6.40;;;;;;;23.40;63.75;100468.44;4954078;28;97270;-49
2022/08/16 06:05:43;;;;;;;8.13;7.07;;;;;;;23.46;63.78;100465.38;4958114;28;97127;-48
2022/08/16 06:08:08;;;;;;;7.47;6.87;;;;;;;23.50;63.62;100472.00;4957885;28;98613;-48
2022/08/16 06:10:34;;;;;;;7.70;7.10;;;;;;;23.53;63.55;100470.84;4952224;28;97360;-48
2022/08/16 06:12:59;;;;;;;8.37;7.67;;;;;;;23.56;63.61;100472.47;4954441;28;97149;-48
2022/08/16 06:15:25;;;;;;;7.00;6.40;;;;;;;23.60;63.54;100481.22;4954788;28;96887;-49
2022/08/16 06:17:51;;;;;;;7.73;6.80;;;;;;;23.63;63.51;100476.50;4953385;28;96998;-49
2022/08/16 06:20:22;;;;;;;7.43;6.83;;;;;;;23.68;63.83;100483.88;4956767;28;97833;-49
2022/08/16 06:22:49;;;;;;;7.00;6.50;;;;;;;23.71;63.47;100489.06;4958773;28;97282;-48
2022/08/16 06:25:15;;;;;;;8.70;7.90;;;;;;;23.73;63.59;100482.84;4953903;28;97866;-49
2022/08/16 06:27:40;;;;;;;7.57;6.97;;;;;;;23.76;63.59;100490.84;4956442;28;97207;-49
2022/08/16 06:30:07;;;;;;;6.83;6.33;;;;;;;23.81;63.65;100484.19;4954590;28;97017;-48
2022/08/16 06:32:33;;;;;;;6.77;6.33;;;;;;;23.84;63.74;100476.66;4956485;28;97361;-48
2022/08/16 06:34:58;;;;;;;6.23;5.83;;;;;;;23.87;63.41;100477.56;4952842;28;97164;-48
2022/08/16 06:37:23;;;;;;;5.93;5.43;;;;;;;23.88;63.25;100479.78;4958440;28;97275;-47
2022/08/16 06:39:49;;;;;;;8.53;6.10;;;;;;;23.91;63.35;100486.28;4955668;28;97442;-49
2022/08/16 06:42:14;;;;;;;6.20;5.70;;;;;;;23.94;63.52;100485.13;4961535;28;97131;-49
2022/08/16 06:44:39;;;;;;;6.70;6.20;;;;;;;23.97;63.42;100483.91;4958256;28;97223;-48
2022/08/16 06:47:05;;;;;;;7.30;6.03;;;;;;;23.99;63.58;100487.63;4956913;28;96750;-48
2022/08/16 06:49:30;;;;;;;6.57;5.77;;;;;;;24.02;63.49;100500.50;4956903;28;97359;-48
2022/08/16 06:51:56;;;;;;;5.80;5.40;;;;;;;24.04;63.37;100500.66;4953453;28;96764;-49
2022/08/16 06:54:21;;;;;;;6.30;5.80;;;;;;;24.08;63.17;100509.41;4956000;28;97130;-49
2022/08/16 06:56:46;;;;;;;6.37;5.80;;;;;;;24.12;63.34;100511.75;4957723;28;97395;-47
2022/08/16 06:59:12;;;;;;;5.87;5.47;;;;;;;24.14;63.54;100509.84;4957047;28;97480;-48
2022/08/16 07:01:38;;;;;;;5.87;5.47;;;;;;;24.18;63.42;100523.47;4956312;28;97138;-48
2022/08/16 07:04:03;;;;;;;5.40;5.00;;;;;;;24.21;63.11;100520.22;4954847;28;97680;-48
2022/08/16 07:06:30;;;;;;;5.87;5.30;;;;;;;24.23;63.17;100528.78;4950595;28;97031;-48
2022/08/16 07:08:56;;;;;;;6.67;6.10;;;;;;;24.25;62.58;100520.50;4952892;28;97203;-47
2022/08/16 07:11:21;;;;;;;6.83;6.23;;;;;;;24.27;62.66;100529.09;4954754;28;97513;-49
2022/08/16 07:13:48;;;;;;;5.80;5.40;;;;;;;24.32;63.10;100527.31;4953568;28;97146;-50
2022/08/16 07:16:15;;;;;;;6.33;5.93;;;;;;;24.34;62.96;100533.84;4951357;28;98142;-48
2022/08/16 07:18:44;;;;;;;6.03;5.47;;;;;;;24.38;63.02;100524.94;4955573;28;98732;-48
2022/08/16 07:21:11;;;;;;;5.73;5.33;;;;;;;24.43;63.43;100529.53;4951288;28;97697;-47
2022/08/16 07:23:37;;;;;;;6.70;6.10;;;;;;;24.47;63.32;100541.06;4957053;28;96691;-47
2022/08/16 07:26:05;;;;;;;6.23;5.73;;;;;;;24.53;63.51;100535.88;4956080;28;97285;-53
2022/08/16 07:28:30;;;;;;;5.90;5.50;;;;;;;24.59;63.18;100541.97;4953918;28;97600;-47
2022/08/16 07:30:56;;;;;;;6.17;5.77;;;;;;;24.62;63.47;100537.97;4954587;28;101583;-48
2022/08/16 07:33:22;;;;;;;6.00;5.27;;;;;;;24.66;62.86;100546.69;4956279;28;97289;-48
2022/08/16 07:35:47;;;;;;;5.97;5.57;;;;;;;24.69;63.20;100545.50;4953422;28;97045;-48
2022/08/16 07:38:13;;;;;;;6.33;5.90;;;;;;;24.71;63.45;100542.84;4959710;28;97474;-48
2022/08/16 07:40:38;;;;;;;7.00;6.47;;;;;;;24.75;63.25;100543.16;4955478;28;97009;-48
2022/08/16 07:43:04;;;;;;;6.10;5.70;;;;;;;24.82;63.19;100544.31;4955809;28;97209;-48
2022/08/16 07:45:29;;;;;;;6.40;5.90;;;;;;;24.86;62.60;100548.16;4954551;28;96691;-49
2022/08/16 07:47:55;;;;;;;5.73;5.33;;;;;;;24.91;62.43;100554.81;4950831;28;97575;-47
2022/08/16 07:50:21;;;;;;;6.63;6.13;;;;;;;24.95;61.91;100553.03;4952873;28;97395;-47
2022/08/16 07:52:47;;;;;;;5.80;5.40;;;;;;;25.01;62.07;100559.09;4952202;28;97886;-47
2022/08/16 07:55:14;;;;;;;6.03;5.57;;;;;;;25.07;62.07;100550.34;4953296;28;97358;-47
2022/08/16 07:57:41;;;;;;;6.37;5.77;;;;;;;25.15;62.33;100557.28;4951312;28;97382;-48
2022/08/16 08:00:08;;;;;;;5.83;5.27;;;;;;;25.23;61.84;100563.50;4956414;28;97390;-48
2022/08/16 08:02:33;;;;;;;6.57;5.87;;;;;;;25.29;62.17;100563.91;4956376;28;97418;-48
2022/08/16 08:04:59;;;;;;;5.27;4.90;;;;;;;25.37;61.72;100566.56;4958045;28;96812;-48
2022/08/16 08:07:24;;;;;;;7.63;5.13;;;;;;;25.44;61.49;100562.13;4952360;28;97560;-48
2022/08/16 08:09:51;;;;;;;5.20;4.70;;;;;;;25.49;61.40;100569.53;4955276;28;97167;-48
2022/08/16 08:12:18;;;;;;;4.87;4.47;;;;;;;25.52;61.68;100571.13;4953899;28;97017;-48
2022/08/16 08:14:45;;;;;;;5.13;4.77;;;;;;;25.56;61.83;100574.97;4956522;28;97018;-48
2022/08/16 08:17:10;;;;;;;4.50;4.20;;;;;;;25.60;61.74;100575.22;4952801;28;97791;-48
2022/08/16 08:19:36;;;;;;;4.80;4.47;;;;;;;25.66;61.08;100572.09;4956641;28;97546;-48
2022/08/16 08:22:05;;;;;;;4.57;4.23;;;;;;;25.71;61.32;100579.47;4953015;28;97022;-48
2022/08/16 08:24:31;;;;;;;4.93;4.50;;;;;;;25.78;61.35;100575.75;4955388;28;97109;-48
2022/08/16 08:26:59;;;;;;;4.97;4.57;;;;;;;25.85;60.76;100574.81;4954711;28;98747;-47
2022/08/16 08:29:24;;;;;;;4.70;4.40;;;;;;;25.92;61.06;100576.72;4952068;28;100166;-48
2022/08/16 08:31:51;;;;;;;4.60;4.20;;;;;;;25.98;60.29;100583.50;4952210;28;109985;-48
2022/08/16 08:34:17;;;;;;;3.60;3.40;;;;;;;26.09;59.87;100575.75;4953755;28;97171;-48
2022/08/16 08:36:42;;;;;;;3.90;3.70;;;;;;;26.17;59.23;100582.66;4951813;28;97163;-48
2022/08/16 08:39:08;;;;;;;4.20;3.90;;;;;;;26.25;59.51;100574.75;4953334;28;97170;-50
2022/08/16 08:41:33;;;;;;;3.73;3.53;;;;;;;26.34;59.76;100573.91;4952213;28;96901;-47
2022/08/16 08:43:59;;;;;;;4.00;3.70;;;;;;;26.43;59.81;100575.22;4952308;28;106922;-48
2022/08/16 08:46:25;;;;;;;4.00;3.70;;;;;;;26.53;59.36;100575.84;4956393;28;97925;-48
2022/08/16 08:48:52;;;;;;;3.80;3.50;;;;;;;26.61;58.56;100576.38;4953029;28;97317;-48
2022/08/16 08:51:18;;;;;;;3.53;3.23;;;;;;;26.67;58.38;100576.75;4954023;28;96687;-48
2022/08/16 08:53:44;;;;;;;3.17;2.97;;;;;;;26.74;57.94;100576.59;4949516;28;96803;-48
2022/08/16 08:56:11;;;;;;;4.30;3.97;;;;;;;26.84;57.51;100581.41;4954489;28;97363;-48
2022/08/16 08:58:36;;;;;;;3.80;3.60;;;;;;;26.96;57.51;100582.16;4953340;28;97661;-48
2022/08/16 09:01:05;;;;;;;3.77;3.57;;;;;;;27.12;57.75;100575.47;4956663;28;96787;-48
2022/08/16 09:03:31;;;;;;;5.27;4.30;;;;;;;27.27;56.97;100577.81;4956596;28;96958;-48
2022/08/16 09:05:57;;;;;;;4.77;3.40;;;;;;;27.42;56.43;100580.22;4955809;28;97818;-48
2022/08/16 09:08:23;;;;;;;5.37;3.50;;;;;;;27.54;56.65;100579.47;4956048;28;97342;-48
2022/08/16 09:10:48;;;;;;;4.50;4.10;;;;;;;27.67;57.15;100582.44;4954730;28;96819;-48
2022/08/16 09:13:14;;;;;;;3.80;3.50;;;;;;;27.79;56.36;100588.06;4951577;28;96801;-48
2022/08/16 09:15:39;;;;;;;3.30;3.10;;;;;;;27.89;56.00;100589.41;4952314;28;100679;-48
2022/08/16 09:18:06;;;;;;;3.27;3.10;;;;;;;27.98;55.08;100587.84;4949506;28;101533;-48
2022/08/16 09:20:31;;;;;;;3.37;3.00;;;;;;;28.06;54.76;100585.50;4953636;28;97487;-48
2022/08/16 09:22:58;;;;;;;3.70;3.43;;;;;;;28.16;54.73;100595.31;4956023;28;97014;-48
2022/08/16 09:25:24;;;;;;;3.53;3.33;;;;;;;28.27;54.37;100593.06;4945657;28;97940;-48
2022/08/16 09:27:50;;;;;;;3.00;2.80;;;;;;;28.34;53.96;100589.22;4950903;28;97899;-48
2022/08/16 09:30:16;;;;;;;3.43;3.23;;;;;;;28.42;53.52;100595.38;4953050;28;97307;-49
2022/08/16 09:32:42;;;;;;;3.30;3.10;;;;;;;28.49;52.94;100583.75;4950314;28;97003;-49
2022/08/16 09:35:08;;;;;;;3.53;3.33;;;;;;;28.57;53.23;100578.59;4952823;28;97768;-50
2022/08/16 09:37:33;;;;;;;3.20;3.00;;;;;;;28.69;52.78;100576.47;4949406;28;97296;-49
2022/08/16 09:39:59;;;;;;;3.47;3.20;;;;;;;28.82;52.72;100587.09;4952310;28;97435;-47
2022/08/16 09:42:28;;;;;;;2.80;2.70;;;;;;;28.90;51.88;100579.06;4952097;28;97015;-48
2022/08/16 09:44:54;;;;;;;2.80;2.70;;;;;;;28.98;51.72;100581.59;4952474;28;97356;-47
2022/08/16 09:47:21;;;;;;;3.10;2.90;;;;;;;29.04;51.33;100581.94;4954759;28;97781;-47
2022/08/16 09:49:46;;;;;;;3.13;2.93;;;;;;;29.12;51.36;100582.38;4951382;28;96934;-49
2022/08/16 09:52:12;;;;;;;3.00;2.80;;;;;;;29.20;51.29;100590.63;4956552;28;98009;-50
2022/08/16 09:54:39;;;;;;;3.03;2.73;;;;;;;29.29;51.16;100581.91;4954320;28;97278;-48
2022/08/16 09:57:05;;;;;;;3.00;2.80;;;;;;;29.37;50.97;100588.03;4956484;28;97052;-48
2022/08/16 09:59:31;;;;;;;2.47;2.37;;;;;;;29.41;50.65;100590.34;4959799;28;97563;-48
2022/08/16 10:01:57;;;;;;;3.40;3.20;;;;;;;29.46;49.80;100578.59;4953689;28;97190;-48
2022/08/16 10:04:25;;;;;;;2.83;2.67;;;;;;;29.52;50.03;100578.19;4958277;28;98862;-49
2022/08/16 10:06:53;;;;;;;2.93;2.83;;;;;;;29.59;49.85;100574.31;4956679;28;101666;-48
2022/08/16 10:09:18;;;;;;;3.50;3.00;;;;;;;29.55;49.41;100579.75;4955939;28;97536;-48
2022/08/16 10:14:29;;;;;;;2.90;2.80;;;;;;;29.34;49.12;100577.94;4954335;28;101305;-48
2022/08/16 10:16:57;;;;;;;3.00;2.80;;;;;;;29.42;49.07;100571.97;4948733;28;96808;-48
2022/08/16 10:19:22;;;;;;;3.63;3.43;;;;;;;29.49;48.71;100574.50;4956878;28;97151;-49
2022/08/16 10:21:48;;;;;;;3.10;2.90;;;;;;;29.54;48.60;100573.34;4957154;28;97213;-48
2022/08/16 10:24:14;;;;;;;3.03;2.83;;;;;;;29.60;48.55;100570.81;4954925;28;97437;-49
2022/08/16 10:26:40;;;;;;;3.57;3.27;;;;;;;29.66;48.35;100573.97;4955835;28;96872;-48
2022/08/16 10:29:06;;;;;;;2.50;2.40;;;;;;;29.75;48.50;100580.84;4955397;28;97036;-48
2022/08/16 10:31:32;;;;;;;3.00;2.80;;;;;;;29.83;47.69;100574.84;4956003;28;97427;-49
2022/08/16 10:34:00;;;;;;;3.60;3.30;;;;;;;29.92;47.87;100580.31;4955616;28;97617;-47
2022/08/16 10:36:26;;;;;;;7.57;2.80;;;;;;;30.01;47.63;100585.03;4954530;28;99577;-49
2022/08/16 10:38:51;;;;;;;3.20;2.90;;;;;;;30.07;47.11;100585.34;4957568;28;97412;-50
2022/08/16 10:41:16;;;;;;;3.13;2.93;;;;;;;30.01;47.02;100590.00;4954727;28;97006;-48
2022/08/16 10:43:42;;;;;;;3.00;2.80;;;;;;;29.91;46.92;100587.34;4956995;28;96824;-50
2022/08/16 10:46:13;;;;;;;3.00;2.80;;;;;;;29.81;47.05;100584.00;4959229;28;97167;-48
2022/08/16 10:48:40;;;;;;;2.20;2.10;;;;;;;29.84;47.09;100582.00;4955933;28;97042;-49
2022/08/16 10:51:07;;;;;;;3.63;3.10;;;;;;;29.94;46.65;100574.75;4957063;28;97238;-48
2022/08/16 10:53:33;;;;;;;3.00;2.80;;;;;;;30.07;46.03;100578.94;4955480;28;100618;-50
2022/08/16 10:55:59;;;;;;;3.77;3.57;;;;;;;30.24;46.33;100584.06;4956747;28;97372;-49
2022/08/16 10:58:25;;;;;;;2.87;2.67;;;;;;;30.35;46.06;100583.97;4953224;28;97446;-48
2022/08/16 11:00:52;;;;;;;3.00;2.80;;;;;;;30.31;45.95;100583.78;4954513;28;96990;-50
2022/08/16 11:03:18;;;;;;;2.80;2.60;;;;;;;30.24;46.43;100576.28;4954170;28;96986;-50
2022/08/16 11:05:43;;;;;;;2.80;2.70;;;;;;;30.21;46.37;100579.63;4952816;28;97675;-48
2022/08/16 11:08:12;;;;;;;2.80;2.70;;;;;;;30.31;46.14;100583.03;4957302;28;97053;-47
2022/08/16 11:10:42;;;;;;;2.60;2.40;;;;;;;30.46;46.00;100578.78;4955525;28;97320;-47
2022/08/16 11:13:09;;;;;;;2.93;2.73;;;;;;;30.44;45.36;100579.41;4951433;28;98236;-47
2022/08/16 11:15:36;;;;;;;3.97;3.50;;;;;;;30.32;45.38;100590.91;4954231;28;97528;-47
2022/08/16 11:18:06;;;;;;;2.90;2.80;;;;;;;30.22;45.27;100589.63;4958030;28;97123;-47
2022/08/16 11:20:31;;;;;;;2.70;2.60;;;;;;;30.12;45.65;100592.69;4956493;28;97081;-50
2022/08/16 11:22:58;;;;;;;2.50;2.40;;;;;;;30.05;46.04;100590.19;4952007;28;97258;-49